createdAt,value
2022-10-11T00:03:05.366Z,8.36
2022-10-11T00:06:12.130Z,8.35
2022-10-11T00:09:18.797Z,8.36
2022-10-11T00:12:25.584Z,8.35
2022-10-11T00:15:32.338Z,8.32
2022-10-11T00:18:40.031Z,8.32
2022-10-11T00:21:47.185Z,8.28
2022-10-11T00:24:54.126Z,8.22
2022-10-11T00:28:00.957Z,8.20
2022-10-11T00:31:11.152Z,8.20
2022-10-11T00:34:18.200Z,8.22
2022-10-11T00:37:25.040Z,8.24
2022-10-11T00:40:31.770Z,8.26
2022-10-11T00:43:38.674Z,8.28
2022-10-11T00:46:55.607Z,8.31
2022-10-11T00:50:04.278Z,8.34
2022-10-11T00:53:14.419Z,8.35
2022-10-11T00:56:25.296Z,8.36
2022-10-11T00:59:37.511Z,8.37
2022-10-11T01:02:44.807Z,8.40
2022-10-11T01:05:51.742Z,8.45
2022-10-11T01:08:59.031Z,8.51
2022-10-11T01:12:13.352Z,8.58
2022-10-11T01:15:26.736Z,8.67
2022-10-11T01:18:36.724Z,8.75
2022-10-11T01:21:49.023Z,8.82
2022-10-11T01:25:16.117Z,8.90
2022-10-11T01:28:37.730Z,8.99
2022-10-11T01:31:52.596Z,9.08
2022-10-11T01:35:04.163Z,9.17
2022-10-11T01:38:17.153Z,9.24
2022-10-11T01:41:28.898Z,9.32
2022-10-11T01:44:37.625Z,9.40
2022-10-11T01:47:45.788Z,9.47
2022-10-11T01:50:55.095Z,9.55
2022-10-11T01:54:35.229Z,9.62
2022-10-11T01:58:08.889Z,9.70
2022-10-11T02:01:27.999Z,9.76
2022-10-11T02:04:40.576Z,9.81
2022-10-11T02:07:52.818Z,9.84
2022-10-11T02:11:05.749Z,9.87
2022-10-11T02:14:16.633Z,9.91
2022-10-11T02:17:28.532Z,9.93
2022-10-11T02:20:39.257Z,9.96
2022-10-11T02:23:52.293Z,9.97
2022-10-11T02:27:01.342Z,9.99
2022-10-11T02:30:10.332Z,10.00
2022-10-11T02:33:22.999Z,10.02
2022-10-11T02:36:40.262Z,10.04
2022-10-11T02:39:52.575Z,10.04
2022-10-11T02:43:04.220Z,10.02
2022-10-11T02:46:12.195Z,9.98
2022-10-11T02:49:19.739Z,9.91
2022-10-11T02:52:26.526Z,9.85
2022-10-11T02:55:33.268Z,9.79
2022-10-11T02:58:40.051Z,9.70
2022-10-11T03:01:46.923Z,9.60
2022-10-11T03:04:53.677Z,9.52
2022-10-11T03:08:00.400Z,9.48
2022-10-11T03:11:06.958Z,9.41
2022-10-11T03:14:13.575Z,9.36
2022-10-11T03:17:35.627Z,9.29
2022-10-11T03:20:43.370Z,9.19
2022-10-11T03:23:50.217Z,9.10
2022-10-11T03:26:56.760Z,9.02
2022-10-11T03:30:03.562Z,8.95
2022-10-11T03:33:10.153Z,8.87
2022-10-11T03:36:16.973Z,8.77
2022-10-11T03:39:23.586Z,8.65
2022-10-11T03:42:30.526Z,8.55
2022-10-11T03:45:37.517Z,8.47
2022-10-11T03:48:44.258Z,8.38
2022-10-11T03:51:50.836Z,8.31
2022-10-11T03:54:57.705Z,8.22
2022-10-11T03:58:06.353Z,8.15
2022-10-11T04:01:13.300Z,8.08
2022-10-11T04:04:19.903Z,8.06
2022-10-11T04:07:26.511Z,8.03
2022-10-11T04:10:33.153Z,7.99
2022-10-11T04:13:40.023Z,7.96
2022-10-11T04:16:46.797Z,7.94
2022-10-11T04:19:53.416Z,7.89
2022-10-11T04:23:00.084Z,7.82
2022-10-11T04:26:08.981Z,7.74
2022-10-11T04:29:16.217Z,7.66
2022-10-11T04:32:22.895Z,7.57
2022-10-11T04:35:29.622Z,7.46
2022-10-11T04:38:39.809Z,7.39
2022-10-11T04:41:46.414Z,7.38
2022-10-11T04:44:53.063Z,7.42
2022-10-11T04:48:00.032Z,7.50
2022-10-11T04:51:07.453Z,7.61
2022-10-11T04:54:14.309Z,7.73
2022-10-11T04:57:20.887Z,7.83
2022-10-11T05:00:27.509Z,7.94
2022-10-11T05:03:36.697Z,8.01
2022-10-11T05:06:43.384Z,8.06
2022-10-11T05:09:50.088Z,8.10
2022-10-11T05:12:56.641Z,8.14
2022-10-11T05:16:08.388Z,8.12
2022-10-11T05:19:17.526Z,8.06
2022-10-11T05:22:24.128Z,7.99
2022-10-11T05:25:31.019Z,7.89
2022-10-11T05:28:38.354Z,7.81
2022-10-11T05:31:45.122Z,7.74
2022-10-11T05:34:51.702Z,7.66
2022-10-11T05:37:58.360Z,7.59
2022-10-11T05:41:06.766Z,7.53
2022-10-11T05:44:13.318Z,7.50
2022-10-11T05:47:20.055Z,7.48
2022-10-11T05:50:26.784Z,7.47
2022-10-11T05:53:33.676Z,7.45
2022-10-11T05:56:40.275Z,7.43
2022-10-11T05:59:47.032Z,7.42
2022-10-11T06:02:53.725Z,7.42
2022-10-11T06:06:04.807Z,7.42
2022-10-11T06:09:12.148Z,7.44
2022-10-11T06:12:18.854Z,7.49
2022-10-11T06:15:25.789Z,7.53
2022-10-11T06:18:32.583Z,7.57
2022-10-11T06:21:39.451Z,7.63
2022-10-11T06:24:46.191Z,7.69
2022-10-11T06:27:52.889Z,7.76
2022-10-11T06:30:59.897Z,7.82
2022-10-11T06:34:06.482Z,7.91
2022-10-11T06:37:13.141Z,8.01
2022-10-11T06:40:20.120Z,8.13
2022-10-11T06:43:26.635Z,8.28
2022-10-11T06:46:34.079Z,8.47
2022-10-11T06:49:40.788Z,8.70
2022-10-11T06:52:49.151Z,8.89
2022-10-11T06:56:02.661Z,9.14
2022-10-11T06:59:09.899Z,9.42
2022-10-11T07:02:16.473Z,9.60
2022-10-11T07:05:23.105Z,9.69
2022-10-11T07:08:29.693Z,9.79
2022-10-11T07:11:37.277Z,9.89
2022-10-11T07:14:43.808Z,9.98
2022-10-11T07:17:50.408Z,10.02
2022-10-11T07:20:56.866Z,10.09
2022-10-11T07:24:04.294Z,10.12
2022-10-11T07:27:10.752Z,10.23
2022-10-11T07:30:17.571Z,10.34
2022-10-11T07:33:24.143Z,10.47
2022-10-11T07:36:30.675Z,10.56
2022-10-11T07:39:37.490Z,10.61
2022-10-11T07:42:44.097Z,10.75
2022-10-11T07:45:54.638Z,10.80
2022-10-11T07:49:01.395Z,10.88
2022-10-11T07:52:08.315Z,10.85
2022-10-11T07:55:15.027Z,10.86
2022-10-11T07:58:21.605Z,10.89
2022-10-11T08:01:29.439Z,10.99
2022-10-11T08:04:36.154Z,11.15
2022-10-11T08:07:42.974Z,11.24
2022-10-11T08:10:49.632Z,11.32
2022-10-11T08:13:58.705Z,11.44
2022-10-11T08:17:05.481Z,11.52
2022-10-11T08:20:13.074Z,11.44
2022-10-11T08:23:20.689Z,11.55
2022-10-11T08:26:27.896Z,11.65
2022-10-11T08:29:34.954Z,11.79
2022-10-11T08:32:43.668Z,11.97
2022-10-11T08:35:51.979Z,12.09
2022-10-11T08:38:58.458Z,12.20
2022-10-11T08:42:12.526Z,12.13
2022-10-11T08:45:29.627Z,12.05
2022-10-11T08:48:39.606Z,12.07
2022-10-11T08:51:51.918Z,12.16
2022-10-11T08:55:02.630Z,12.30
2022-10-11T08:58:11.794Z,12.51
2022-10-11T09:01:19.169Z,12.83
2022-10-11T09:04:25.845Z,12.96
2022-10-11T09:07:44.064Z,12.87
2022-10-11T09:11:05.156Z,12.91
2022-10-11T09:14:34.491Z,13.10
2022-10-11T09:17:53.096Z,13.17
2022-10-11T09:21:22.815Z,13.31
2022-10-11T09:24:47.430Z,13.54
2022-10-11T09:28:05.127Z,13.66
2022-10-11T09:31:12.731Z,13.75
2022-10-11T09:34:19.788Z,13.86
2022-10-11T09:37:32.757Z,14.00
2022-10-11T09:40:49.204Z,14.11
2022-10-11T09:43:56.333Z,14.21
2022-10-11T09:47:03.011Z,14.23
2022-10-11T09:50:19.804Z,14.24
2022-10-11T09:53:54.293Z,14.31
2022-10-11T09:57:00.961Z,14.02
2022-10-11T10:00:21.355Z,13.71
2022-10-11T10:03:32.160Z,13.55
2022-10-11T10:06:40.076Z,13.44
2022-10-11T10:09:46.695Z,13.39
2022-10-11T10:12:58.966Z,13.31
2022-10-11T10:16:08.039Z,13.36
2022-10-11T10:19:18.375Z,13.43
2022-10-11T10:22:28.814Z,13.48
2022-10-11T10:25:43.284Z,13.57
2022-10-11T10:29:03.290Z,13.83
2022-10-11T10:32:15.448Z,13.99
2022-10-11T10:35:37.455Z,13.81
2022-10-11T10:38:52.334Z,13.58
2022-10-11T10:42:00.830Z,13.39
2022-10-11T10:45:20.810Z,13.26
2022-10-11T10:49:11.673Z,13.08
2022-10-11T10:52:21.051Z,13.04
2022-10-11T10:55:35.431Z,13.22
2022-10-11T10:58:56.402Z,13.52
2022-10-11T11:02:35.530Z,13.77
2022-10-11T11:05:50.743Z,14.11
2022-10-11T11:09:06.823Z,14.32
2022-10-11T11:12:29.857Z,14.56
2022-10-11T11:15:41.842Z,14.85
2022-10-11T11:18:59.419Z,15.02
2022-10-11T11:22:15.868Z,15.05
2022-10-11T11:25:32.190Z,15.17
2022-10-11T11:28:53.630Z,15.42
2022-10-11T11:32:18.451Z,15.67
2022-10-11T11:35:33.377Z,15.90
2022-10-11T11:38:46.421Z,16.26
2022-10-11T11:41:57.947Z,16.62
2022-10-11T11:45:16.711Z,16.88
2022-10-11T11:48:25.835Z,17.15
2022-10-11T11:51:32.346Z,17.33
2022-10-11T11:54:49.575Z,17.23
2022-10-11T11:58:07.555Z,16.72
2022-10-11T12:01:26.480Z,16.24
2022-10-11T12:04:38.122Z,15.90
2022-10-11T12:07:59.705Z,15.75
2022-10-11T12:11:06.837Z,15.72
2022-10-11T12:14:30.608Z,15.59
2022-10-11T12:17:57.813Z,15.29
2022-10-11T12:21:07.706Z,14.80
2022-10-11T12:24:22.974Z,14.49
2022-10-11T12:27:43.998Z,14.19
2022-10-11T12:31:04.605Z,14.03
2022-10-11T12:34:35.323Z,14.11
2022-10-11T12:38:03.847Z,14.33
2022-10-11T12:41:51.568Z,14.50
2022-10-11T12:45:33.199Z,14.69
2022-10-11T12:48:53.481Z,14.88
2022-10-11T12:52:03.789Z,14.88
2022-10-11T12:55:23.974Z,15.02
2022-10-11T12:58:38.395Z,15.28
2022-10-11T13:01:54.228Z,15.49
2022-10-11T13:05:16.874Z,15.70
2022-10-11T13:08:29.743Z,15.79
2022-10-11T13:11:39.903Z,15.88
2022-10-11T13:14:49.303Z,15.83
2022-10-11T13:18:01.581Z,15.86
2022-10-11T13:21:24.061Z,16.02
2022-10-11T13:24:38.485Z,16.17
2022-10-11T13:27:45.438Z,16.36
2022-10-11T13:30:56.028Z,16.51
2022-10-11T13:34:02.805Z,16.33
2022-10-11T13:37:16.473Z,16.06
2022-10-11T13:40:24.453Z,15.78
2022-10-11T13:43:33.151Z,15.56
2022-10-11T13:46:41.811Z,15.40
2022-10-11T13:50:01.638Z,15.35
2022-10-11T13:53:24.516Z,15.34
2022-10-11T13:56:33.623Z,15.25
2022-10-11T13:59:43.957Z,15.07
2022-10-11T14:02:56.122Z,15.01
2022-10-11T14:06:03.526Z,14.86
2022-10-11T14:09:20.121Z,14.73
2022-10-11T14:12:34.052Z,14.78
2022-10-11T14:15:40.791Z,14.81
2022-10-11T14:18:49.893Z,14.83
2022-10-11T14:21:56.706Z,14.86
2022-10-11T14:25:03.572Z,14.93
2022-10-11T14:28:14.149Z,15.04
2022-10-11T14:31:21.003Z,15.12
2022-10-11T14:34:28.954Z,15.13
2022-10-11T14:37:35.658Z,15.08
2022-10-11T14:40:42.374Z,15.08
2022-10-11T14:43:49.173Z,15.04
2022-10-11T14:46:56.456Z,15.09
2022-10-11T14:50:03.383Z,15.17
2022-10-11T14:53:13.924Z,15.15
2022-10-11T14:56:21.831Z,15.14
2022-10-11T14:59:32.760Z,15.10
2022-10-11T15:02:39.384Z,15.09
2022-10-11T15:05:47.152Z,15.05
2022-10-11T15:08:54.012Z,14.92
2022-10-11T15:12:00.821Z,14.75
2022-10-11T15:15:08.397Z,14.57
2022-10-11T15:18:17.724Z,14.42
2022-10-11T15:21:24.528Z,14.25
2022-10-11T15:24:31.368Z,14.00
2022-10-11T15:27:38.081Z,13.74
2022-10-11T15:30:44.862Z,13.50
2022-10-11T15:33:52.294Z,13.29
2022-10-11T15:36:58.879Z,13.09
2022-10-11T15:40:11.579Z,12.90
2022-10-11T15:43:24.291Z,12.69
2022-10-11T15:46:32.312Z,12.44
2022-10-11T15:49:39.282Z,12.17
2022-10-11T15:52:45.830Z,11.94
2022-10-11T15:55:54.563Z,11.72
2022-10-11T15:59:01.519Z,11.49
2022-10-11T16:02:14.205Z,11.27
2022-10-11T16:05:23.529Z,11.06
2022-10-11T16:08:30.313Z,10.86
2022-10-11T16:11:37.052Z,10.66
2022-10-11T16:14:47.086Z,10.47
2022-10-11T16:17:54.067Z,10.26
2022-10-11T16:21:00.772Z,10.02
2022-10-11T16:24:08.954Z,9.77
2022-10-11T16:27:18.987Z,9.51
2022-10-11T16:30:26.255Z,9.30
2022-10-11T16:33:32.780Z,9.07
2022-10-11T16:36:42.678Z,8.86
2022-10-11T16:39:49.654Z,8.63
2022-10-11T16:42:56.547Z,8.43
2022-10-11T16:46:03.731Z,8.26
2022-10-11T16:49:10.869Z,8.12
2022-10-11T16:52:18.412Z,7.99
2022-10-11T16:55:25.313Z,7.85
2022-10-11T16:58:32.031Z,7.75
2022-10-11T17:01:39.185Z,7.66
2022-10-11T17:04:46.351Z,7.57
2022-10-11T17:07:53.183Z,7.51
2022-10-11T17:11:00.408Z,7.43
2022-10-11T17:14:07.785Z,7.31
2022-10-11T17:17:14.589Z,7.17
2022-10-11T17:20:21.352Z,7.04
2022-10-11T17:23:28.322Z,6.92
2022-10-11T17:26:35.588Z,6.79
2022-10-11T17:29:42.543Z,6.67
2022-10-11T17:32:49.317Z,6.58
2022-10-11T17:35:56.308Z,6.50
2022-10-11T17:39:05.397Z,6.47
2022-10-11T17:42:12.213Z,6.44
2022-10-11T17:45:19.721Z,6.38
2022-10-11T17:48:27.341Z,6.31
2022-10-11T17:51:34.497Z,6.21
2022-10-11T17:54:41.058Z,6.12
2022-10-11T17:57:47.865Z,6.03
2022-10-11T18:00:54.965Z,5.95
2022-10-11T18:04:07.018Z,5.87
2022-10-11T18:07:13.730Z,5.80
2022-10-11T18:10:20.757Z,5.73
2022-10-11T18:13:27.616Z,5.65
2022-10-11T18:16:34.799Z,5.57
2022-10-11T18:19:41.540Z,5.51
2022-10-11T18:22:48.260Z,5.46
2022-10-11T18:25:54.788Z,5.43
2022-10-11T18:29:01.858Z,5.39
2022-10-11T18:32:08.659Z,5.31
2022-10-11T18:35:15.417Z,5.21
2022-10-11T18:38:22.319Z,5.11
2022-10-11T18:41:32.182Z,5.01
2022-10-11T18:44:39.284Z,4.91
2022-10-11T18:47:46.093Z,4.84
2022-10-11T18:51:01.880Z,4.80
2022-10-11T18:54:13.930Z,4.77
2022-10-11T18:57:24.318Z,4.72
2022-10-11T19:00:40.742Z,4.64
2022-10-11T19:03:50.417Z,4.59
2022-10-11T19:06:57.326Z,4.54
2022-10-11T19:10:04.609Z,4.53
2022-10-11T19:13:11.285Z,4.50
2022-10-11T19:16:20.083Z,4.46
2022-10-11T19:19:29.391Z,4.44
2022-10-11T19:22:36.143Z,4.44
2022-10-11T19:25:42.915Z,4.42
2022-10-11T19:28:55.258Z,4.40
2022-10-11T19:32:04.116Z,4.38
2022-10-11T19:35:15.306Z,4.32
2022-10-11T19:38:26.146Z,4.25
2022-10-11T19:41:33.385Z,4.19
2022-10-11T19:44:40.237Z,4.13
2022-10-11T19:47:46.830Z,4.07
2022-10-11T19:50:53.415Z,4.02
2022-10-11T19:54:01.823Z,3.99
2022-10-11T19:57:09.579Z,3.98
2022-10-11T20:00:17.868Z,3.96
2022-10-11T20:03:24.650Z,3.92
2022-10-11T20:06:37.230Z,3.84
2022-10-11T20:09:44.932Z,3.79
2022-10-11T20:12:51.748Z,3.74
2022-10-11T20:16:00.280Z,3.67
2022-10-11T20:19:07.055Z,3.61
2022-10-11T20:22:13.671Z,3.55
2022-10-11T20:25:20.446Z,3.51
2022-10-11T20:28:28.067Z,3.49
2022-10-11T20:31:38.285Z,3.49
2022-10-11T20:34:45.087Z,3.48
2022-10-11T20:37:53.653Z,3.48
2022-10-11T20:41:00.317Z,3.47
2022-10-11T20:44:07.547Z,3.41
2022-10-11T20:47:14.242Z,3.35
2022-10-11T20:50:23.167Z,3.29
2022-10-11T20:53:31.089Z,3.22
2022-10-11T20:56:38.346Z,3.20
2022-10-11T20:59:45.684Z,3.16
2022-10-11T21:02:54.322Z,3.13
2022-10-11T21:06:03.897Z,3.08
2022-10-11T21:09:11.282Z,3.03
2022-10-11T21:12:20.619Z,2.98
2022-10-11T21:15:27.269Z,2.92
2022-10-11T21:18:34.305Z,2.88
2022-10-11T21:21:40.972Z,2.82
2022-10-11T21:24:47.591Z,2.77
2022-10-11T21:27:54.273Z,2.76
2022-10-11T21:31:06.981Z,2.76
2022-10-11T21:34:13.599Z,2.74
2022-10-11T21:37:20.241Z,2.69
2022-10-11T21:40:27.050Z,2.61
2022-10-11T21:43:35.253Z,2.59
2022-10-11T21:47:06.031Z,2.56
2022-10-11T21:50:09.383Z,2.51
2022-10-11T21:53:15.972Z,2.45
2022-10-11T21:56:22.960Z,2.41
2022-10-11T21:59:29.633Z,2.39
2022-10-11T22:02:36.806Z,2.38
2022-10-11T22:05:47.150Z,2.37
2022-10-11T22:08:53.811Z,2.36
2022-10-11T22:12:00.422Z,2.32
2022-10-11T22:15:08.516Z,2.25
2022-10-11T22:18:15.272Z,2.17
2022-10-11T22:21:23.940Z,2.16
2022-10-11T22:24:31.822Z,2.16
2022-10-11T22:27:38.498Z,2.14
2022-10-11T22:30:45.322Z,2.12
2022-10-11T22:33:56.306Z,2.11
2022-10-11T22:37:03.020Z,2.09
2022-10-11T22:40:11.157Z,2.05
2022-10-11T22:43:17.807Z,2.03
2022-10-11T22:46:24.494Z,2.03
2022-10-11T22:49:31.139Z,2.01
2022-10-11T22:52:37.792Z,1.97
2022-10-11T22:55:44.627Z,1.90
2022-10-11T22:58:51.368Z,1.86
2022-10-11T23:01:57.895Z,1.83
2022-10-11T23:05:04.711Z,1.82
2022-10-11T23:08:11.686Z,1.81
2022-10-11T23:11:18.453Z,1.78
2022-10-11T23:14:25.109Z,1.76
2022-10-11T23:17:31.756Z,1.69
2022-10-11T23:20:40.594Z,1.64
2022-10-11T23:23:47.958Z,1.61
2022-10-11T23:26:54.557Z,1.58
2022-10-11T23:30:01.245Z,1.54
2022-10-11T23:33:07.897Z,1.49
2022-10-11T23:36:19.527Z,1.45
2022-10-11T23:39:26.133Z,1.39
2022-10-11T23:42:32.855Z,1.35
2022-10-11T23:45:39.709Z,1.33
2022-10-11T23:48:46.427Z,1.28
2022-10-11T23:51:53.140Z,1.26
2022-10-11T23:54:59.744Z,1.25
2022-10-11T23:58:06.446Z,1.21
